sensor_id;sensor_type;location;lat;lon;timestamp;P1;durP1;ratioP1;P2;durP2;ratioP2
78563;SDS011;67856;47.754;19.088;2023-05-15T00:01:40;0.93;;;0.77;;
78563;SDS011;67856;47.754;19.088;2023-05-15T00:04:42;1.10;;;0.85;;
78563;SDS011;67856;47.754;19.088;2023-05-15T00:07:45;0.95;;;0.73;;
78563;SDS011;67856;47.754;19.088;2023-05-15T00:10:47;1.00;;;0.90;;
78563;SDS011;67856;47.754;19.088;2023-05-15T00:14:02;1.30;;;1.00;;
78563;SDS011;67856;47.754;19.088;2023-05-15T00:17:05;1.00;;;0.90;;
78563;SDS011;67856;47.754;19.088;2023-05-15T00:20:09;1.00;;;0.90;;
78563;SDS011;67856;47.754;19.088;2023-05-15T00:23:11;1.30;;;0.90;;
78563;SDS011;67856;47.754;19.088;2023-05-15T00:26:14;1.00;;;0.80;;
78563;SDS011;67856;47.754;19.088;2023-05-15T00:29:16;0.80;;;0.80;;
78563;SDS011;67856;47.754;19.088;2023-05-15T00:32:19;1.00;;;0.80;;
78563;SDS011;67856;47.754;19.088;2023-05-15T00:35:21;1.17;;;0.98;;
78563;SDS011;67856;47.754;19.088;2023-05-15T00:38:24;1.20;;;0.90;;
78563;SDS011;67856;47.754;19.088;2023-05-15T00:41:27;1.15;;;0.90;;
78563;SDS011;67856;47.754;19.088;2023-05-15T00:44:33;1.17;;;0.93;;
78563;SDS011;67856;47.754;19.088;2023-05-15T00:47:35;1.40;;;1.10;;
78563;SDS011;67856;47.754;19.088;2023-05-15T00:50:39;0.77;;;0.70;;
78563;SDS011;67856;47.754;19.088;2023-05-15T00:53:45;1.13;;;0.70;;
78563;SDS011;67856;47.754;19.088;2023-05-15T00:56:47;1.08;;;0.98;;
78563;SDS011;67856;47.754;19.088;2023-05-15T00:59:51;0.97;;;0.87;;
78563;SDS011;67856;47.754;19.088;2023-05-15T01:02:54;1.10;;;0.70;;
78563;SDS011;67856;47.754;19.088;2023-05-15T01:05:56;1.00;;;0.90;;
78563;SDS011;67856;47.754;19.088;2023-05-15T01:08:59;2.47;;;0.90;;
78563;SDS011;67856;47.754;19.088;2023-05-15T01:12:05;0.88;;;0.75;;
78563;SDS011;67856;47.754;19.088;2023-05-15T01:15:09;1.10;;;0.90;;
78563;SDS011;67856;47.754;19.088;2023-05-15T01:18:11;0.83;;;0.67;;
78563;SDS011;67856;47.754;19.088;2023-05-15T01:31:00;1.10;;;0.80;;
78563;SDS011;67856;47.754;19.088;2023-05-15T01:34:09;0.87;;;0.80;;
78563;SDS011;67856;47.754;19.088;2023-05-15T01:37:12;1.00;;;0.88;;
78563;SDS011;67856;47.754;19.088;2023-05-15T01:40:16;1.45;;;0.98;;
78563;SDS011;67856;47.754;19.088;2023-05-15T01:43:21;1.00;;;0.80;;
78563;SDS011;67856;47.754;19.088;2023-05-15T01:46:25;1.20;;;0.90;;
78563;SDS011;67856;47.754;19.088;2023-05-15T01:49:32;0.90;;;0.80;;
78563;SDS011;67856;47.754;19.088;2023-05-15T01:52:35;0.90;;;0.73;;
78563;SDS011;67856;47.754;19.088;2023-05-15T01:55:41;1.20;;;0.85;;
78563;SDS011;67856;47.754;19.088;2023-05-15T01:58:44;0.98;;;0.85;;
78563;SDS011;67856;47.754;19.088;2023-05-15T02:01:48;1.20;;;1.10;;
78563;SDS011;67856;47.754;19.088;2023-05-15T02:04:52;0.80;;;0.80;;
78563;SDS011;67856;47.754;19.088;2023-05-15T02:07:54;1.00;;;0.80;;
78563;SDS011;67856;47.754;19.088;2023-05-15T02:10:58;1.40;;;0.80;;
78563;SDS011;67856;47.754;19.088;2023-05-15T02:14:01;0.90;;;0.77;;
78563;SDS011;67856;47.754;19.088;2023-05-15T02:17:06;0.80;;;0.70;;
78563;SDS011;67856;47.754;19.088;2023-05-15T02:20:08;1.20;;;0.90;;
78563;SDS011;67856;47.754;19.088;2023-05-15T02:23:12;1.33;;;1.00;;
78563;SDS011;67856;47.754;19.088;2023-05-15T02:26:21;1.20;;;0.80;;
78563;SDS011;67856;47.754;19.088;2023-05-15T02:29:36;0.90;;;0.80;;
78563;SDS011;67856;47.754;19.088;2023-05-15T02:32:58;0.77;;;0.70;;
78563;SDS011;67856;47.754;19.088;2023-05-15T02:36:09;1.10;;;0.90;;
78563;SDS011;67856;47.754;19.088;2023-05-15T02:39:12;0.95;;;0.75;;
78563;SDS011;67856;47.754;19.088;2023-05-15T02:42:18;1.00;;;0.85;;
78563;SDS011;67856;47.754;19.088;2023-05-15T02:45:21;0.90;;;0.70;;
78563;SDS011;67856;47.754;19.088;2023-05-15T02:48:24;1.10;;;0.90;;
78563;SDS011;67856;47.754;19.088;2023-05-15T02:51:27;1.10;;;0.87;;
78563;SDS011;67856;47.754;19.088;2023-05-15T02:54:31;0.90;;;0.75;;
78563;SDS011;67856;47.754;19.088;2023-05-15T02:57:33;1.08;;;0.80;;
78563;SDS011;67856;47.754;19.088;2023-05-15T03:00:35;1.05;;;0.70;;
78563;SDS011;67856;47.754;19.088;2023-05-15T03:03:38;1.07;;;0.80;;
78563;SDS011;67856;47.754;19.088;2023-05-15T03:06:40;0.70;;;0.70;;
78563;SDS011;67856;47.754;19.088;2023-05-15T03:09:43;1.10;;;1.00;;
78563;SDS011;67856;47.754;19.088;2023-05-15T03:12:46;1.10;;;0.90;;
78563;SDS011;67856;47.754;19.088;2023-05-15T03:15:48;1.00;;;0.88;;
78563;SDS011;67856;47.754;19.088;2023-05-15T03:18:51;1.30;;;0.80;;
78563;SDS011;67856;47.754;19.088;2023-05-15T03:21:53;1.50;;;1.10;;
78563;SDS011;67856;47.754;19.088;2023-05-15T03:24:56;1.63;;;1.20;;
78563;SDS011;67856;47.754;19.088;2023-05-15T03:27:58;1.10;;;1.00;;
78563;SDS011;67856;47.754;19.088;2023-05-15T03:31:01;1.10;;;0.98;;
78563;SDS011;67856;47.754;19.088;2023-05-15T03:34:06;1.40;;;1.00;;
78563;SDS011;67856;47.754;19.088;2023-05-15T03:37:08;1.20;;;1.10;;
78563;SDS011;67856;47.754;19.088;2023-05-15T03:40:11;1.20;;;0.80;;
78563;SDS011;67856;47.754;19.088;2023-05-15T03:43:14;1.45;;;1.10;;
78563;SDS011;67856;47.754;19.088;2023-05-15T03:46:16;1.20;;;0.90;;
78563;SDS011;67856;47.754;19.088;2023-05-15T03:49:19;1.30;;;1.00;;
78563;SDS011;67856;47.754;19.088;2023-05-15T03:52:21;1.10;;;0.90;;
78563;SDS011;67856;47.754;19.088;2023-05-15T03:55:23;1.50;;;1.15;;
78563;SDS011;67856;47.754;19.088;2023-05-15T03:58:26;1.10;;;1.00;;
78563;SDS011;67856;47.754;19.088;2023-05-15T04:01:29;1.05;;;0.88;;
78563;SDS011;67856;47.754;19.088;2023-05-15T04:04:31;1.03;;;0.93;;
78563;SDS011;67856;47.754;19.088;2023-05-15T04:07:34;1.10;;;0.93;;
78563;SDS011;67856;47.754;19.088;2023-05-15T04:10:37;0.93;;;0.60;;
78563;SDS011;67856;47.754;19.088;2023-05-15T04:13:40;1.35;;;1.00;;
78563;SDS011;67856;47.754;19.088;2023-05-15T04:16:42;1.10;;;1.00;;
78563;SDS011;67856;47.754;19.088;2023-05-15T04:19:45;1.20;;;0.90;;
78563;SDS011;67856;47.754;19.088;2023-05-15T04:22:49;0.87;;;0.80;;
78563;SDS011;67856;47.754;19.088;2023-05-15T04:25:52;1.05;;;0.85;;
78563;SDS011;67856;47.754;19.088;2023-05-15T04:28:54;1.00;;;0.80;;
78563;SDS011;67856;47.754;19.088;2023-05-15T04:32:05;0.95;;;0.80;;
78563;SDS011;67856;47.754;19.088;2023-05-15T04:35:08;1.00;;;0.70;;
78563;SDS011;67856;47.754;19.088;2023-05-15T04:38:12;0.97;;;0.73;;
78563;SDS011;67856;47.754;19.088;2023-05-15T04:41:15;1.00;;;0.90;;
78563;SDS011;67856;47.754;19.088;2023-05-15T04:44:17;1.17;;;0.98;;
78563;SDS011;67856;47.754;19.088;2023-05-15T04:47:20;1.30;;;1.00;;
78563;SDS011;67856;47.754;19.088;2023-05-15T04:50:23;1.60;;;1.00;;
78563;SDS011;67856;47.754;19.088;2023-05-15T04:53:26;1.30;;;1.10;;
78563;SDS011;67856;47.754;19.088;2023-05-15T04:56:29;2.20;;;1.20;;
78563;SDS011;67856;47.754;19.088;2023-05-15T04:59:31;2.85;;;1.38;;
78563;SDS011;67856;47.754;19.088;2023-05-15T05:02:34;2.22;;;1.40;;
78563;SDS011;67856;47.754;19.088;2023-05-15T05:05:36;2.30;;;1.50;;
78563;SDS011;67856;47.754;19.088;2023-05-15T05:08:38;1.77;;;1.53;;
78563;SDS011;67856;47.754;19.088;2023-05-15T05:11:41;2.33;;;1.30;;
78563;SDS011;67856;47.754;19.088;2023-05-15T05:14:44;2.53;;;1.80;;
78563;SDS011;67856;47.754;19.088;2023-05-15T05:17:47;2.70;;;1.90;;
78563;SDS011;67856;47.754;19.088;2023-05-15T05:20:49;1.90;;;1.50;;
78563;SDS011;67856;47.754;19.088;2023-05-15T05:24:00;3.43;;;1.70;;
78563;SDS011;67856;47.754;19.088;2023-05-15T05:27:03;6.65;;;1.55;;
78563;SDS011;67856;47.754;19.088;2023-05-15T05:30:11;2.30;;;1.77;;
78563;SDS011;67856;47.754;19.088;2023-05-15T05:33:14;2.22;;;1.50;;
78563;SDS011;67856;47.754;19.088;2023-05-15T05:36:19;2.40;;;1.50;;
78563;SDS011;67856;47.754;19.088;2023-05-15T05:39:28;1.90;;;1.43;;
78563;SDS011;67856;47.754;19.088;2023-05-15T05:42:30;1.60;;;1.30;;
78563;SDS011;67856;47.754;19.088;2023-05-15T05:45:33;2.72;;;1.80;;
78563;SDS011;67856;47.754;19.088;2023-05-15T05:48:36;2.25;;;1.50;;
78563;SDS011;67856;47.754;19.088;2023-05-15T05:51:38;1.90;;;1.50;;
78563;SDS011;67856;47.754;19.088;2023-05-15T05:54:41;3.40;;;1.60;;
78563;SDS011;67856;47.754;19.088;2023-05-15T05:57:46;2.42;;;1.60;;
78563;SDS011;67856;47.754;19.088;2023-05-15T06:01:01;2.63;;;1.42;;
78563;SDS011;67856;47.754;19.088;2023-05-15T06:04:57;3.47;;;1.42;;
78563;SDS011;67856;47.754;19.088;2023-05-15T06:08:00;2.63;;;1.50;;
78563;SDS011;67856;47.754;19.088;2023-05-15T06:11:08;4.43;;;1.57;;
78563;SDS011;67856;47.754;19.088;2023-05-15T06:14:10;6.32;;;1.65;;
78563;SDS011;67856;47.754;19.088;2023-05-15T06:17:16;4.00;;;1.73;;
78563;SDS011;67856;47.754;19.088;2023-05-15T06:20:19;4.55;;;1.45;;
78563;SDS011;67856;47.754;19.088;2023-05-15T06:23:21;3.13;;;1.60;;
78563;SDS011;67856;47.754;19.088;2023-05-15T06:26:25;4.80;;;1.40;;
78563;SDS011;67856;47.754;19.088;2023-05-15T06:29:27;2.90;;;1.58;;
78563;SDS011;67856;47.754;19.088;2023-05-15T06:32:30;3.65;;;1.52;;
78563;SDS011;67856;47.754;19.088;2023-05-15T06:35:35;6.60;;;1.65;;
78563;SDS011;67856;47.754;19.088;2023-05-15T06:42:56;4.80;;;1.60;;
78563;SDS011;67856;47.754;19.088;2023-05-15T06:45:59;3.08;;;1.15;;
78563;SDS011;67856;47.754;19.088;2023-05-15T06:49:02;4.18;;;1.65;;
78563;SDS011;67856;47.754;19.088;2023-05-15T06:52:05;4.60;;;1.70;;
78563;SDS011;67856;47.754;19.088;2023-05-15T06:55:07;5.57;;;1.90;;
78563;SDS011;67856;47.754;19.088;2023-05-15T06:58:10;3.10;;;1.60;;
78563;SDS011;67856;47.754;19.088;2023-05-15T07:01:13;4.05;;;1.73;;
78563;SDS011;67856;47.754;19.088;2023-05-15T07:04:16;3.55;;;1.70;;
78563;SDS011;67856;47.754;19.088;2023-05-15T07:07:19;3.47;;;1.70;;
78563;SDS011;67856;47.754;19.088;2023-05-15T07:10:21;3.23;;;1.77;;
78563;SDS011;67856;47.754;19.088;2023-05-15T07:13:24;11.00;;;1.70;;
78563;SDS011;67856;47.754;19.088;2023-05-15T07:16:26;5.53;;;1.73;;
78563;SDS011;67856;47.754;19.088;2023-05-15T07:19:29;3.65;;;1.90;;
78563;SDS011;67856;47.754;19.088;2023-05-15T07:22:31;8.15;;;1.85;;
78563;SDS011;67856;47.754;19.088;2023-05-15T07:25:42;3.67;;;1.50;;
78563;SDS011;67856;47.754;19.088;2023-05-15T07:28:46;4.13;;;1.80;;
78563;SDS011;67856;47.754;19.088;2023-05-15T07:31:49;6.80;;;1.95;;
78563;SDS011;67856;47.754;19.088;2023-05-15T07:34:51;6.80;;;1.60;;
78563;SDS011;67856;47.754;19.088;2023-05-15T07:37:54;6.30;;;1.60;;
78563;SDS011;67856;47.754;19.088;2023-05-15T07:40:56;2.77;;;1.50;;
78563;SDS011;67856;47.754;19.088;2023-05-15T07:44:02;2.70;;;1.53;;
78563;SDS011;67856;47.754;19.088;2023-05-15T07:47:06;4.97;;;1.65;;
78563;SDS011;67856;47.754;19.088;2023-05-15T07:50:08;6.88;;;1.70;;
78563;SDS011;67856;47.754;19.088;2023-05-15T07:53:12;4.70;;;1.70;;
78563;SDS011;67856;47.754;19.088;2023-05-15T07:56:15;2.67;;;1.73;;
78563;SDS011;67856;47.754;19.088;2023-05-15T07:59:21;4.03;;;1.57;;
78563;SDS011;67856;47.754;19.088;2023-05-15T08:02:23;5.00;;;1.90;;
78563;SDS011;67856;47.754;19.088;2023-05-15T08:05:26;3.38;;;1.67;;
78563;SDS011;67856;47.754;19.088;2023-05-15T08:08:28;7.03;;;1.65;;
78563;SDS011;67856;47.754;19.088;2023-05-15T08:11:31;5.47;;;1.50;;
78563;SDS011;67856;47.754;19.088;2023-05-15T08:14:34;3.63;;;1.40;;
78563;SDS011;67856;47.754;19.088;2023-05-15T08:17:36;4.00;;;1.50;;
78563;SDS011;67856;47.754;19.088;2023-05-15T08:20:40;6.97;;;1.70;;
78563;SDS011;67856;47.754;19.088;2023-05-15T08:23:43;3.92;;;1.42;;
78563;SDS011;67856;47.754;19.088;2023-05-15T08:26:45;2.87;;;1.47;;
78563;SDS011;67856;47.754;19.088;2023-05-15T08:29:48;1.90;;;1.30;;
78563;SDS011;67856;47.754;19.088;2023-05-15T08:32:50;4.50;;;1.40;;
78563;SDS011;67856;47.754;19.088;2023-05-15T08:35:53;6.25;;;1.50;;
78563;SDS011;67856;47.754;19.088;2023-05-15T08:38:55;2.72;;;1.60;;
78563;SDS011;67856;47.754;19.088;2023-05-15T08:42:04;4.73;;;1.50;;
78563;SDS011;67856;47.754;19.088;2023-05-15T08:45:11;3.93;;;1.30;;
78563;SDS011;67856;47.754;19.088;2023-05-15T08:48:15;5.10;;;1.85;;
78563;SDS011;67856;47.754;19.088;2023-05-15T08:51:22;6.82;;;1.67;;
78563;SDS011;67856;47.754;19.088;2023-05-15T08:54:25;2.85;;;1.50;;
78563;SDS011;67856;47.754;19.088;2023-05-15T08:57:32;5.47;;;1.97;;
78563;SDS011;67856;47.754;19.088;2023-05-15T09:00:41;3.87;;;1.63;;
78563;SDS011;67856;47.754;19.088;2023-05-15T09:03:44;7.88;;;1.60;;
78563;SDS011;67856;47.754;19.088;2023-05-15T09:06:47;3.33;;;1.70;;
78563;SDS011;67856;47.754;19.088;2023-05-15T09:09:50;4.85;;;1.60;;
78563;SDS011;67856;47.754;19.088;2023-05-15T09:12:53;6.50;;;1.80;;
78563;SDS011;67856;47.754;19.088;2023-05-15T09:15:55;5.63;;;1.77;;
78563;SDS011;67856;47.754;19.088;2023-05-15T09:18:58;2.78;;;1.48;;
78563;SDS011;67856;47.754;19.088;2023-05-15T09:22:15;5.35;;;1.35;;
78563;SDS011;67856;47.754;19.088;2023-05-15T09:25:37;9.73;;;1.70;;
78563;SDS011;67856;47.754;19.088;2023-05-15T09:28:42;7.47;;;1.50;;
78563;SDS011;67856;47.754;19.088;2023-05-15T09:31:45;5.73;;;1.60;;
78563;SDS011;67856;47.754;19.088;2023-05-15T09:34:49;7.53;;;1.67;;
78563;SDS011;67856;47.754;19.088;2023-05-15T09:37:56;5.43;;;1.48;;
78563;SDS011;67856;47.754;19.088;2023-05-15T09:41:03;4.80;;;1.58;;
78563;SDS011;67856;47.754;19.088;2023-05-15T09:44:16;5.40;;;1.60;;
78563;SDS011;67856;47.754;19.088;2023-05-15T09:47:26;7.07;;;1.60;;
78563;SDS011;67856;47.754;19.088;2023-05-15T09:50:36;9.60;;;1.70;;
78563;SDS011;67856;47.754;19.088;2023-05-15T09:53:39;6.00;;;1.80;;
78563;SDS011;67856;47.754;19.088;2023-05-15T09:56:46;4.18;;;1.80;;
78563;SDS011;67856;47.754;19.088;2023-05-15T09:59:49;5.03;;;2.03;;
78563;SDS011;67856;47.754;19.088;2023-05-15T10:02:51;5.77;;;1.83;;
78563;SDS011;67856;47.754;19.088;2023-05-15T10:06:00;7.78;;;1.85;;
78563;SDS011;67856;47.754;19.088;2023-05-15T10:09:04;4.57;;;1.80;;
78563;SDS011;67856;47.754;19.088;2023-05-15T10:12:07;5.85;;;1.90;;
78563;SDS011;67856;47.754;19.088;2023-05-15T10:15:10;6.17;;;2.07;;
78563;SDS011;67856;47.754;19.088;2023-05-15T10:18:13;4.00;;;2.17;;
78563;SDS011;67856;47.754;19.088;2023-05-15T10:21:15;3.80;;;1.92;;
78563;SDS011;67856;47.754;19.088;2023-05-15T10:24:19;7.93;;;2.20;;
78563;SDS011;67856;47.754;19.088;2023-05-15T10:27:22;4.65;;;1.90;;
78563;SDS011;67856;47.754;19.088;2023-05-15T10:30:24;6.73;;;2.23;;
78563;SDS011;67856;47.754;19.088;2023-05-15T10:33:28;3.67;;;1.90;;
78563;SDS011;67856;47.754;19.088;2023-05-15T10:36:31;5.30;;;2.03;;
78563;SDS011;67856;47.754;19.088;2023-05-15T10:39:34;4.45;;;2.13;;
78563;SDS011;67856;47.754;19.088;2023-05-15T10:42:40;6.70;;;2.25;;
78563;SDS011;67856;47.754;19.088;2023-05-15T10:45:47;6.40;;;2.27;;
78563;SDS011;67856;47.754;19.088;2023-05-15T10:48:49;7.07;;;2.20;;
78563;SDS011;67856;47.754;19.088;2023-05-15T10:51:53;4.47;;;1.95;;
78563;SDS011;67856;47.754;19.088;2023-05-15T10:54:56;6.22;;;1.65;;
78563;SDS011;67856;47.754;19.088;2023-05-15T10:57:58;6.60;;;1.92;;
78563;SDS011;67856;47.754;19.088;2023-05-15T11:01:23;8.27;;;2.10;;
78563;SDS011;67856;47.754;19.088;2023-05-15T11:04:36;7.90;;;1.73;;
78563;SDS011;67856;47.754;19.088;2023-05-15T11:07:39;5.97;;;1.90;;
78563;SDS011;67856;47.754;19.088;2023-05-15T11:10:42;10.35;;;2.33;;
78563;SDS011;67856;47.754;19.088;2023-05-15T11:17:11;9.13;;;2.20;;
78563;SDS011;67856;47.754;19.088;2023-05-15T11:20:18;5.40;;;2.30;;
78563;SDS011;67856;47.754;19.088;2023-05-15T11:23:21;10.18;;;2.50;;
78563;SDS011;67856;47.754;19.088;2023-05-15T11:26:33;9.23;;;2.10;;
78563;SDS011;67856;47.754;19.088;2023-05-15T11:29:35;11.15;;;2.25;;
78563;SDS011;67856;47.754;19.088;2023-05-15T11:36:09;12.60;;;2.20;;
78563;SDS011;67856;47.754;19.088;2023-05-15T11:39:12;7.70;;;1.98;;
78563;SDS011;67856;47.754;19.088;2023-05-15T11:42:15;9.68;;;2.17;;
78563;SDS011;67856;47.754;19.088;2023-05-15T11:45:18;7.53;;;2.28;;
78563;SDS011;67856;47.754;19.088;2023-05-15T11:48:29;8.17;;;1.73;;
78563;SDS011;67856;47.754;19.088;2023-05-15T11:51:35;7.63;;;2.30;;
78563;SDS011;67856;47.754;19.088;2023-05-15T11:54:44;12.77;;;2.20;;
78563;SDS011;67856;47.754;19.088;2023-05-15T11:57:47;9.98;;;1.80;;
78563;SDS011;67856;47.754;19.088;2023-05-15T12:00:50;5.07;;;2.08;;
78563;SDS011;67856;47.754;19.088;2023-05-15T12:03:54;7.20;;;1.87;;
78563;SDS011;67856;47.754;19.088;2023-05-15T12:06:57;10.80;;;2.20;;
78563;SDS011;67856;47.754;19.088;2023-05-15T12:10:04;10.20;;;1.80;;
78563;SDS011;67856;47.754;19.088;2023-05-15T12:13:07;8.00;;;2.00;;
78563;SDS011;67856;47.754;19.088;2023-05-15T12:16:10;9.23;;;1.80;;
78563;SDS011;67856;47.754;19.088;2023-05-15T12:19:12;7.70;;;1.97;;
78563;SDS011;67856;47.754;19.088;2023-05-15T12:22:15;9.63;;;2.00;;
78563;SDS011;67856;47.754;19.088;2023-05-15T12:25:22;7.38;;;1.85;;
78563;SDS011;67856;47.754;19.088;2023-05-15T12:28:25;8.23;;;1.80;;
78563;SDS011;67856;47.754;19.088;2023-05-15T12:31:28;8.02;;;1.80;;
78563;SDS011;67856;47.754;19.088;2023-05-15T12:34:31;10.30;;;2.07;;
78563;SDS011;67856;47.754;19.088;2023-05-15T12:37:34;6.67;;;1.90;;
78563;SDS011;67856;47.754;19.088;2023-05-15T12:40:37;7.57;;;1.85;;
78563;SDS011;67856;47.754;19.088;2023-05-15T12:43:40;7.97;;;1.60;;
78563;SDS011;67856;47.754;19.088;2023-05-15T12:46:42;6.82;;;1.95;;
78563;SDS011;67856;47.754;19.088;2023-05-15T12:49:45;6.80;;;2.07;;
78563;SDS011;67856;47.754;19.088;2023-05-15T12:52:55;9.03;;;1.80;;
78563;SDS011;67856;47.754;19.088;2023-05-15T12:55:58;6.57;;;1.65;;
78563;SDS011;67856;47.754;19.088;2023-05-15T12:59:00;5.43;;;1.80;;
78563;SDS011;67856;47.754;19.088;2023-05-15T13:02:07;9.50;;;1.55;;
78563;SDS011;67856;47.754;19.088;2023-05-15T13:05:13;6.80;;;1.60;;
78563;SDS011;67856;47.754;19.088;2023-05-15T13:08:16;8.93;;;1.83;;
78563;SDS011;67856;47.754;19.088;2023-05-15T13:11:19;5.43;;;1.65;;
78563;SDS011;67856;47.754;19.088;2023-05-15T13:14:21;7.05;;;1.98;;
78563;SDS011;67856;47.754;19.088;2023-05-15T13:17:28;8.00;;;1.90;;
78563;SDS011;67856;47.754;19.088;2023-05-15T13:20:32;8.20;;;2.30;;
78563;SDS011;67856;47.754;19.088;2023-05-15T13:23:36;9.13;;;1.80;;
78563;SDS011;67856;47.754;19.088;2023-05-15T13:26:38;7.43;;;1.60;;
78563;SDS011;67856;47.754;19.088;2023-05-15T13:29:40;8.27;;;1.50;;
78563;SDS011;67856;47.754;19.088;2023-05-15T13:32:43;4.78;;;2.00;;
78563;SDS011;67856;47.754;19.088;2023-05-15T13:35:46;13.40;;;1.80;;
78563;SDS011;67856;47.754;19.088;2023-05-15T13:38:48;5.70;;;1.60;;
78563;SDS011;67856;47.754;19.088;2023-05-15T13:41:51;8.65;;;1.73;;
78563;SDS011;67856;47.754;19.088;2023-05-15T13:44:53;7.35;;;1.80;;
78563;SDS011;67856;47.754;19.088;2023-05-15T13:47:56;4.47;;;1.70;;
78563;SDS011;67856;47.754;19.088;2023-05-15T13:50:59;7.07;;;1.70;;
78563;SDS011;67856;47.754;19.088;2023-05-15T13:54:01;5.37;;;1.70;;
78563;SDS011;67856;47.754;19.088;2023-05-15T13:57:04;6.85;;;1.73;;
78563;SDS011;67856;47.754;19.088;2023-05-15T14:00:07;6.43;;;1.90;;
78563;SDS011;67856;47.754;19.088;2023-05-15T14:03:16;6.60;;;1.70;;
78563;SDS011;67856;47.754;19.088;2023-05-15T14:06:19;7.13;;;1.80;;
78563;SDS011;67856;47.754;19.088;2023-05-15T14:09:22;3.93;;;1.70;;
78563;SDS011;67856;47.754;19.088;2023-05-15T14:12:24;7.43;;;1.85;;
78563;SDS011;67856;47.754;19.088;2023-05-15T14:15:26;7.45;;;1.88;;
78563;SDS011;67856;47.754;19.088;2023-05-15T14:18:29;8.93;;;2.00;;
78563;SDS011;67856;47.754;19.088;2023-05-15T14:21:33;8.87;;;1.90;;
78563;SDS011;67856;47.754;19.088;2023-05-15T14:24:35;11.40;;;1.73;;
78563;SDS011;67856;47.754;19.088;2023-05-15T14:27:38;6.47;;;1.73;;
78563;SDS011;67856;47.754;19.088;2023-05-15T14:30:40;9.38;;;1.88;;
78563;SDS011;67856;47.754;19.088;2023-05-15T14:33:43;9.23;;;1.60;;
78563;SDS011;67856;47.754;19.088;2023-05-15T14:36:45;7.77;;;2.57;;
78563;SDS011;67856;47.754;19.088;2023-05-15T14:39:48;3.67;;;1.67;;
78563;SDS011;67856;47.754;19.088;2023-05-15T14:42:51;8.77;;;1.80;;
78563;SDS011;67856;47.754;19.088;2023-05-15T14:45:54;5.80;;;1.73;;
78563;SDS011;67856;47.754;19.088;2023-05-15T14:48:57;7.10;;;1.70;;
78563;SDS011;67856;47.754;19.088;2023-05-15T14:51:59;13.03;;;1.70;;
78563;SDS011;67856;47.754;19.088;2023-05-15T14:55:02;11.07;;;1.90;;
78563;SDS011;67856;47.754;19.088;2023-05-15T14:58:12;5.35;;;1.70;;
78563;SDS011;67856;47.754;19.088;2023-05-15T15:01:15;14.35;;;2.00;;
78563;SDS011;67856;47.754;19.088;2023-05-15T15:04:17;5.65;;;1.70;;
78563;SDS011;67856;47.754;19.088;2023-05-15T15:07:20;8.07;;;1.90;;
78563;SDS011;67856;47.754;19.088;2023-05-15T15:10:22;3.97;;;1.50;;
78563;SDS011;67856;47.754;19.088;2023-05-15T15:13:25;7.90;;;1.80;;
78563;SDS011;67856;47.754;19.088;2023-05-15T15:16:28;8.77;;;1.70;;
78563;SDS011;67856;47.754;19.088;2023-05-15T15:19:30;8.02;;;1.80;;
78563;SDS011;67856;47.754;19.088;2023-05-15T15:22:34;6.53;;;1.50;;
78563;SDS011;67856;47.754;19.088;2023-05-15T15:25:36;9.70;;;1.73;;
78563;SDS011;67856;47.754;19.088;2023-05-15T15:28:39;4.15;;;1.50;;
78563;SDS011;67856;47.754;19.088;2023-05-15T15:31:41;4.55;;;1.70;;
78563;SDS011;67856;47.754;19.088;2023-05-15T15:34:44;5.93;;;1.58;;
78563;SDS011;67856;47.754;19.088;2023-05-15T15:37:47;10.53;;;1.77;;
78563;SDS011;67856;47.754;19.088;2023-05-15T15:40:49;3.70;;;1.67;;
78563;SDS011;67856;47.754;19.088;2023-05-15T15:43:52;6.72;;;1.50;;
78563;SDS011;67856;47.754;19.088;2023-05-15T15:46:54;7.57;;;1.80;;
78563;SDS011;67856;47.754;19.088;2023-05-15T15:49:57;3.65;;;1.63;;
78563;SDS011;67856;47.754;19.088;2023-05-15T15:53:00;5.80;;;2.03;;
78563;SDS011;67856;47.754;19.088;2023-05-15T15:56:02;8.60;;;1.50;;
78563;SDS011;67856;47.754;19.088;2023-05-15T15:59:05;4.28;;;1.65;;
78563;SDS011;67856;47.754;19.088;2023-05-15T16:02:08;9.05;;;1.70;;
78563;SDS011;67856;47.754;19.088;2023-05-15T16:05:10;13.30;;;1.85;;
78563;SDS011;67856;47.754;19.088;2023-05-15T16:08:13;7.57;;;1.87;;
78563;SDS011;67856;47.754;19.088;2023-05-15T16:11:15;8.27;;;1.80;;
78563;SDS011;67856;47.754;19.088;2023-05-15T16:14:18;6.43;;;1.90;;
78563;SDS011;67856;47.754;19.088;2023-05-15T16:17:22;5.50;;;1.65;;
78563;SDS011;67856;47.754;19.088;2023-05-15T16:20:24;4.85;;;1.73;;
78563;SDS011;67856;47.754;19.088;2023-05-15T16:23:27;6.60;;;1.70;;
78563;SDS011;67856;47.754;19.088;2023-05-15T16:26:29;11.27;;;1.70;;
78563;SDS011;67856;47.754;19.088;2023-05-15T16:29:32;8.50;;;1.60;;
78563;SDS011;67856;47.754;19.088;2023-05-15T16:32:34;5.90;;;1.70;;
78563;SDS011;67856;47.754;19.088;2023-05-15T16:35:37;11.27;;;1.90;;
78563;SDS011;67856;47.754;19.088;2023-05-15T16:38:39;4.43;;;1.73;;
78563;SDS011;67856;47.754;19.088;2023-05-15T16:41:42;8.37;;;1.90;;
78563;SDS011;67856;47.754;19.088;2023-05-15T16:44:44;7.80;;;1.60;;
78563;SDS011;67856;47.754;19.088;2023-05-15T16:47:47;5.70;;;1.58;;
78563;SDS011;67856;47.754;19.088;2023-05-15T16:50:49;7.45;;;1.70;;
78563;SDS011;67856;47.754;19.088;2023-05-15T16:53:52;6.03;;;1.67;;
78563;SDS011;67856;47.754;19.088;2023-05-15T16:56:57;5.37;;;1.70;;
78563;SDS011;67856;47.754;19.088;2023-05-15T16:59:59;4.47;;;1.60;;
78563;SDS011;67856;47.754;19.088;2023-05-15T17:03:02;4.43;;;1.38;;
78563;SDS011;67856;47.754;19.088;2023-05-15T17:06:05;7.80;;;1.77;;
78563;SDS011;67856;47.754;19.088;2023-05-15T17:09:08;6.47;;;1.60;;
78563;SDS011;67856;47.754;19.088;2023-05-15T17:12:11;6.17;;;1.97;;
78563;SDS011;67856;47.754;19.088;2023-05-15T17:15:14;10.07;;;1.63;;
78563;SDS011;67856;47.754;19.088;2023-05-15T17:18:16;5.38;;;1.30;;
78563;SDS011;67856;47.754;19.088;2023-05-15T17:21:18;4.70;;;1.65;;
78563;SDS011;67856;47.754;19.088;2023-05-15T17:24:21;2.70;;;1.30;;
78563;SDS011;67856;47.754;19.088;2023-05-15T17:27:23;6.83;;;1.60;;
78563;SDS011;67856;47.754;19.088;2023-05-15T17:30:26;5.43;;;1.70;;
78563;SDS011;67856;47.754;19.088;2023-05-15T17:33:28;4.57;;;1.52;;
78563;SDS011;67856;47.754;19.088;2023-05-15T17:36:31;4.22;;;1.58;;
78563;SDS011;67856;47.754;19.088;2023-05-15T17:39:34;5.70;;;1.60;;
78563;SDS011;67856;47.754;19.088;2023-05-15T17:42:37;3.70;;;1.57;;
78563;SDS011;67856;47.754;19.088;2023-05-15T17:45:39;4.32;;;2.13;;
78563;SDS011;67856;47.754;19.088;2023-05-15T17:48:42;4.60;;;1.48;;
78563;SDS011;67856;47.754;19.088;2023-05-15T17:51:45;4.82;;;1.60;;
78563;SDS011;67856;47.754;19.088;2023-05-15T17:54:47;6.70;;;1.50;;
78563;SDS011;67856;47.754;19.088;2023-05-15T17:57:50;4.33;;;1.70;;
78563;SDS011;67856;47.754;19.088;2023-05-15T18:00:53;3.00;;;1.23;;
78563;SDS011;67856;47.754;19.088;2023-05-15T18:03:55;4.50;;;1.52;;
78563;SDS011;67856;47.754;19.088;2023-05-15T18:06:58;4.05;;;1.88;;
78563;SDS011;67856;47.754;19.088;2023-05-15T18:10:00;5.03;;;1.60;;
78563;SDS011;67856;47.754;19.088;2023-05-15T18:13:02;2.53;;;1.23;;
78563;SDS011;67856;47.754;19.088;2023-05-15T18:16:05;3.03;;;1.38;;
78563;SDS011;67856;47.754;19.088;2023-05-15T18:19:08;2.30;;;1.27;;
78563;SDS011;67856;47.754;19.088;2023-05-15T18:22:10;3.45;;;1.42;;
78563;SDS011;67856;47.754;19.088;2023-05-15T18:25:13;4.80;;;1.43;;
78563;SDS011;67856;47.754;19.088;2023-05-15T18:28:15;3.90;;;1.60;;
78563;SDS011;67856;47.754;19.088;2023-05-15T18:31:18;2.97;;;1.40;;